首页
METAR-TAF:

METAR-TAF

机场 :

普雷斯顿, 英格兰

纬度: 53-44-42N, 经度: 2-53-02W, 海拔: 17米

当前天气观测

该预报发布于1小时和26分钟前的11:50 UTC
风速4节,风向北转西北,在西转西北之间变化
温度 14°C
湿度 82%
气压 998 hPa
能见度10公里或以上
少量云层高于600英尺
多云层高于1100英尺

METAR: EGNO 231150Z 34004KT 290V010 9999 FEW006 BKN011 14/11 Q0998

时间: 14:16 (13:16 UTC)

预报

该预报发布于2小时和18分钟前的10:58 UTC
预报有效从23日的 12点(UTC)到 23日的 18点(UTC)
风速7节,风向
能见度10公里或以上
散云层高于3000英尺
几率 40% :
短暂存在
从 23日的 12点(UTC)到 23日的 18点(UTC)
能見度: 6000
多云层高于1200英尺
阵雨

TAF: EGNO 231058Z 2312/2318 01007KT 9999 SCT030 PROB40 TEMPO 2312/2318 6000 SHRA BKN012

超过4000个机场的气象观测和天气预报(METAR&TAF报告)。

可查询的气象台以黄色和红色小点在地图上表示。

将鼠标移到小点上方,可查看气象台名称。

然后点击查看天气观测和预报。

如需切换地图:点击带黑十字的绿色按钮放大地图;点击带横线的绿色按钮缩小地图;或者点击绿色箭头查看邻近地区的地图。


METAR-TAF: